createdAt,value
2022-09-25T00:00:04.421Z,100156.38
2022-09-25T04:02:54.757Z,100056.60
2022-09-25T04:05:24.138Z,100054.98
2022-09-25T04:07:53.503Z,100057.13
2022-09-25T04:10:22.603Z,100056.92
2022-09-25T04:12:55.189Z,100058.22
2022-09-25T04:15:24.683Z,100057.25
2022-09-25T04:17:53.765Z,100057.44
2022-09-25T04:20:22.710Z,100055.88
2022-09-25T04:22:51.852Z,100056.05
2022-09-25T04:25:26.223Z,100057.05
2022-09-25T04:27:56.827Z,100060.42
2022-09-25T04:30:27.808Z,100059.39
2022-09-25T04:33:15.635Z,100055.81
2022-09-25T04:35:45.260Z,100056.23
2022-09-25T04:38:14.405Z,100056.64
2022-09-25T04:40:46.739Z,100055.52
2022-09-25T04:43:15.925Z,100055.14
2022-09-25T04:45:47.952Z,100055.96
2022-09-25T04:48:17.199Z,100057.77
2022-09-25T04:50:52.357Z,100057.59
2022-09-25T04:53:22.084Z,100058.98
2022-09-25T04:55:52.366Z,100058.71
2022-09-25T04:58:22.578Z,100057.63
2022-09-25T05:00:52.028Z,100058.67
2022-09-25T05:03:21.416Z,100057.12
2022-09-25T05:05:50.990Z,100054.36
2022-09-25T05:08:20.745Z,100054.61
2022-09-25T05:10:49.846Z,100056.64
2022-09-25T05:13:19.269Z,100058.49
2022-09-25T05:15:48.558Z,100057.02
2022-09-25T05:18:23.753Z,100058.87
2022-09-25T05:20:57.342Z,100055.14
2022-09-25T05:23:26.615Z,100057.17
2022-09-25T05:25:58.871Z,100057.89
2022-09-25T05:28:32.132Z,100061.66
2022-09-25T05:31:06.006Z,100062.99
2022-09-25T05:33:36.208Z,100063.27
2022-09-25T05:36:07.552Z,100067.39
2022-09-25T05:38:41.296Z,100067.41
2022-09-25T05:41:11.454Z,100068.27
2022-09-25T05:43:43.595Z,100066.84
2022-09-25T05:46:12.907Z,100063.63
2022-09-25T05:48:41.924Z,100060.52
2022-09-25T05:51:11.796Z,100056.30
2022-09-25T05:53:41.327Z,100058.39
2022-09-25T05:56:10.953Z,100057.90
2022-09-25T05:58:39.961Z,100055.42
2022-09-25T06:01:08.445Z,100055.23
2022-09-25T06:03:37.212Z,100054.88
2022-09-25T06:06:06.966Z,100059.76
2022-09-25T06:08:36.044Z,100060.66
2022-09-25T06:11:06.232Z,100063.98
2022-09-25T06:13:37.211Z,100064.08
2022-09-25T06:16:13.834Z,100062.77
2022-09-25T06:18:42.930Z,100064.20
2022-09-25T06:21:12.464Z,100063.16
2022-09-25T06:23:44.520Z,100063.55
2022-09-25T06:26:15.059Z,100061.46
2022-09-25T06:28:43.769Z,100063.42
2022-09-25T06:31:12.677Z,100064.33
2022-09-25T06:33:42.762Z,100066.73
2022-09-25T06:36:11.226Z,100063.30
2022-09-25T06:38:40.009Z,100057.86
2022-09-25T06:41:09.399Z,100057.62
2022-09-25T06:43:38.128Z,100057.39
2022-09-25T06:46:07.451Z,100052.77
2022-09-25T06:48:36.054Z,100054.70
2022-09-25T06:51:05.460Z,100056.15
2022-09-25T06:53:35.693Z,100054.29
2022-09-25T06:56:05.112Z,100057.45
2022-09-25T06:58:36.707Z,100058.30
2022-09-25T07:01:11.288Z,100059.99
2022-09-25T07:03:47.892Z,100061.27
2022-09-25T07:06:21.341Z,100059.53
2022-09-25T07:08:52.621Z,100055.79
2022-09-25T07:11:28.795Z,100056.38
2022-09-25T07:13:58.358Z,100056.20
2022-09-25T07:16:30.522Z,100054.19
2022-09-25T07:19:04.971Z,100048.47
2022-09-25T07:21:34.232Z,100047.55
2022-09-25T07:24:03.732Z,100044.27
2022-09-25T07:26:36.216Z,100050.08
2022-09-25T07:29:09.532Z,100050.63
2022-09-25T07:31:38.911Z,100050.84
2022-09-25T07:34:12.264Z,100054.08
2022-09-25T07:36:44.395Z,100050.63
2022-09-25T07:39:18.162Z,100050.56
2022-09-25T07:41:48.269Z,100049.86
2022-09-25T07:44:28.650Z,100049.46
2022-09-25T07:47:01.399Z,100049.48
2022-09-25T07:49:32.396Z,100048.45
2022-09-25T07:52:07.317Z,100043.19
2022-09-25T07:54:37.968Z,100040.73
2022-09-25T07:57:15.987Z,100038.96
2022-09-25T07:59:46.126Z,100035.70
2022-09-25T08:02:15.409Z,100033.30
2022-09-25T08:04:44.859Z,100035.98
2022-09-25T08:07:14.224Z,100034.06
2022-09-25T08:09:43.595Z,100028.77
2022-09-25T08:12:13.877Z,100031.07
2022-09-25T08:14:45.553Z,100033.14
2022-09-25T08:17:14.061Z,100037.40
2022-09-25T08:19:43.161Z,100031.11
2022-09-25T08:22:13.619Z,100031.16
2022-09-25T08:24:42.425Z,100026.61
2022-09-25T08:27:10.985Z,100018.30
2022-09-25T08:29:40.995Z,100013.32
2022-09-25T08:32:10.716Z,100015.35
2022-09-25T08:34:41.361Z,100013.90
2022-09-25T08:37:11.317Z,100008.59
2022-09-25T08:39:40.588Z,100008.76
2022-09-25T08:42:34.289Z,100006.39
2022-09-25T08:45:27.669Z,100001.02
2022-09-25T08:48:18.702Z,100003.31
2022-09-25T08:50:49.967Z,100000.11
2022-09-25T08:53:25.575Z,99992.34
2022-09-25T08:56:12.780Z,99990.35
2022-09-25T08:58:52.656Z,99990.88
2022-09-25T09:01:32.763Z,99993.50
2022-09-25T09:04:22.547Z,99990.23
2022-09-25T09:07:25.069Z,99988.75
2022-09-25T09:09:56.313Z,99988.73
2022-09-25T09:12:38.487Z,99990.85
2022-09-25T09:15:29.529Z,99985.96
2022-09-25T09:18:02.019Z,99988.02
2022-09-25T09:20:44.908Z,99985.05
2022-09-25T09:23:19.397Z,99982.09
2022-09-25T09:26:17.857Z,99980.45
2022-09-25T09:29:04.852Z,99973.79
2022-09-25T09:31:57.449Z,99976.14
2022-09-25T09:35:04.603Z,99978.27
2022-09-25T09:37:46.477Z,99971.27
2022-09-25T09:40:59.004Z,99970.27
2022-09-25T09:43:38.505Z,99968.14
2022-09-25T09:46:25.325Z,99966.46
2022-09-25T09:49:19.432Z,99960.85
2022-09-25T09:52:12.055Z,99958.83
2022-09-25T09:54:56.972Z,99957.99
2022-09-25T09:57:33.734Z,99950.73
2022-09-25T10:00:15.879Z,99950.30
2022-09-25T10:02:52.285Z,99948.13
2022-09-25T10:05:40.620Z,99943.83
2022-09-25T10:08:13.573Z,99936.55
2022-09-25T10:10:46.287Z,99931.95
2022-09-25T10:13:21.260Z,99930.02
2022-09-25T10:15:56.829Z,99930.67
2022-09-25T10:18:32.475Z,99929.58
2022-09-25T10:21:19.544Z,99923.30
2022-09-25T10:23:56.620Z,99924.39
2022-09-25T10:26:38.608Z,99920.66
2022-09-25T10:29:11.225Z,99921.23
2022-09-25T10:31:42.303Z,99918.67
2022-09-25T10:34:14.576Z,99918.98
2022-09-25T10:36:50.392Z,99918.32
2022-09-25T10:39:50.566Z,99919.96
2022-09-25T10:42:42.379Z,99922.09
2022-09-25T10:45:31.841Z,99916.39
2022-09-25T10:48:20.072Z,99912.70
2022-09-25T10:51:08.849Z,99914.44
2022-09-25T10:53:38.089Z,99909.49
2022-09-25T10:56:13.420Z,99903.46
2022-09-25T10:58:48.231Z,99903.05
2022-09-25T11:01:18.941Z,99899.86
2022-09-25T11:03:55.817Z,99898.80
2022-09-25T11:06:30.976Z,99898.12
2022-09-25T11:09:24.221Z,99897.26
2022-09-25T11:12:05.125Z,99894.67
2022-09-25T11:14:37.230Z,99893.02
2022-09-25T11:17:42.961Z,99886.23
2022-09-25T11:20:18.396Z,99881.67
2022-09-25T11:22:58.750Z,99878.42
2022-09-25T11:25:34.160Z,99876.20
2022-09-25T11:28:14.221Z,99875.16
2022-09-25T11:31:03.045Z,99867.77
2022-09-25T11:33:42.862Z,99867.17
2022-09-25T11:36:39.427Z,99867.85
2022-09-25T11:39:43.897Z,99865.55
2022-09-25T11:42:32.113Z,99860.39
2022-09-25T11:45:11.214Z,99854.50
2022-09-25T11:47:54.386Z,99849.95
2022-09-25T11:50:36.376Z,99850.40
2022-09-25T11:53:33.919Z,99848.41
2022-09-25T11:56:32.796Z,99848.58
2022-09-25T11:59:42.709Z,99846.38
2022-09-25T12:02:30.241Z,99840.95
2022-09-25T12:05:22.858Z,99833.13
2022-09-25T12:08:10.445Z,99836.63
2022-09-25T12:10:47.331Z,99831.89
2022-09-25T12:13:44.851Z,99829.42
2022-09-25T12:16:40.639Z,99833.70
2022-09-25T12:19:31.760Z,99830.38
2022-09-25T12:22:27.957Z,99828.14
2022-09-25T12:25:09.844Z,99827.94
2022-09-25T12:27:48.467Z,99826.70
2022-09-25T12:30:22.121Z,99825.70
2022-09-25T12:32:54.205Z,99824.60
2022-09-25T12:36:09.698Z,99824.27
2022-09-25T12:38:56.408Z,99822.36
2022-09-25T12:42:05.749Z,99821.51
2022-09-25T12:44:54.322Z,99826.79
2022-09-25T12:47:38.108Z,99823.71
2022-09-25T12:50:17.596Z,99824.98
2022-09-25T12:52:53.086Z,99822.52
2022-09-25T12:55:32.427Z,99819.29
2022-09-25T12:58:19.063Z,99816.71
2022-09-25T13:00:56.891Z,99817.21
2022-09-25T13:03:36.464Z,99815.32
2022-09-25T13:06:15.097Z,99811.46
2022-09-25T13:09:02.497Z,99811.63
2022-09-25T13:11:51.640Z,99809.77
2022-09-25T13:14:29.486Z,99804.84
2022-09-25T13:16:58.872Z,99801.73
2022-09-25T13:19:32.415Z,99799.86
2022-09-25T13:22:11.007Z,99796.48
2022-09-25T13:24:58.566Z,99794.05
2022-09-25T13:27:38.624Z,99792.14
2022-09-25T13:30:20.628Z,99787.73
2022-09-25T13:32:52.341Z,99783.98
2022-09-25T13:35:25.037Z,99782.48
2022-09-25T13:37:57.725Z,99779.48
2022-09-25T13:40:45.821Z,99780.56
2022-09-25T13:43:42.194Z,99777.43
2022-09-25T13:46:22.664Z,99776.08
2022-09-25T13:48:53.472Z,99777.33
2022-09-25T13:51:22.021Z,99772.46
2022-09-25T13:54:00.920Z,99770.84
2022-09-25T13:56:48.899Z,99767.70
2022-09-25T13:59:19.907Z,99768.61
2022-09-25T14:01:55.612Z,99770.02
2022-09-25T14:04:49.462Z,99766.59
2022-09-25T14:07:26.167Z,99761.05
2022-09-25T14:09:58.194Z,99764.96
2022-09-25T14:12:56.823Z,99764.28
2022-09-25T14:15:37.689Z,99765.10
2022-09-25T14:18:27.381Z,99766.59
2022-09-25T14:21:01.573Z,99761.20
2022-09-25T14:23:33.764Z,99762.31
2022-09-25T14:26:09.536Z,99759.56
2022-09-25T14:28:46.300Z,99760.19
2022-09-25T14:31:44.443Z,99759.23
2022-09-25T14:34:26.962Z,99760.30
2022-09-25T14:37:18.574Z,99755.48
2022-09-25T14:39:48.655Z,99754.53
2022-09-25T14:42:57.336Z,99753.31
2022-09-25T14:45:34.456Z,99751.88
2022-09-25T14:48:10.881Z,99754.11
2022-09-25T14:50:49.859Z,99751.17
2022-09-25T14:53:33.787Z,99748.45
2022-09-25T14:56:05.904Z,99747.64
2022-09-25T14:58:37.899Z,99745.69
2022-09-25T15:01:33.525Z,99744.23
2022-09-25T15:04:09.791Z,99747.94
2022-09-25T15:06:40.974Z,99747.36
2022-09-25T15:09:31.206Z,99747.48
2022-09-25T15:12:01.203Z,99744.33
2022-09-25T15:14:29.689Z,99740.02
2022-09-25T15:17:16.830Z,99740.60
2022-09-25T15:19:46.266Z,99738.34
2022-09-25T15:22:22.805Z,99732.30
2022-09-25T15:24:56.271Z,99731.08
2022-09-25T15:27:26.143Z,99729.44
2022-09-25T15:29:57.266Z,99726.48
2022-09-25T15:32:31.439Z,99735.49
2022-09-25T15:35:06.863Z,99732.23
2022-09-25T15:37:36.039Z,99736.70
2022-09-25T15:40:31.407Z,99734.45
2022-09-25T15:43:02.372Z,99732.98
2022-09-25T15:45:55.427Z,99732.82
2022-09-25T15:48:33.070Z,99733.19
2022-09-25T15:51:22.875Z,99732.16
2022-09-25T15:54:00.346Z,99727.63
2022-09-25T15:56:45.834Z,99727.31
2022-09-25T15:59:23.384Z,99722.96
2022-09-25T16:02:12.457Z,99721.09
2022-09-25T16:04:53.124Z,99719.27
2022-09-25T16:07:25.165Z,99717.90
2022-09-25T16:09:57.895Z,99716.39
2022-09-25T16:12:27.358Z,99717.59
2022-09-25T16:14:58.562Z,99711.26
2022-09-25T16:17:42.110Z,99713.55
2022-09-25T16:20:31.306Z,99713.52
2022-09-25T16:23:05.185Z,99710.10
2022-09-25T16:25:38.367Z,99708.66
2022-09-25T16:28:20.246Z,99710.42
2022-09-25T16:31:06.312Z,99705.98
2022-09-25T16:33:39.224Z,99706.50
2022-09-25T16:36:17.961Z,99705.82
2022-09-25T16:39:13.064Z,99702.65
2022-09-25T16:41:51.935Z,99703.32
2022-09-25T16:44:48.358Z,99702.54
2022-09-25T16:47:20.470Z,99702.02
2022-09-25T16:49:50.120Z,99703.92
2022-09-25T16:52:24.559Z,99705.21
2022-09-25T16:54:57.401Z,99701.90
2022-09-25T16:57:32.817Z,99700.95
2022-09-25T17:00:02.040Z,99698.39
2022-09-25T17:02:37.337Z,99700.30
2022-09-25T17:05:19.897Z,99694.45
2022-09-25T17:07:50.907Z,99695.02
2022-09-25T17:10:26.928Z,99691.79
2022-09-25T17:12:59.480Z,99690.36
2022-09-25T17:15:35.016Z,99691.89
2022-09-25T17:18:12.574Z,99693.20
2022-09-25T17:20:41.741Z,99688.00
2022-09-25T17:23:11.339Z,99686.41
2022-09-25T17:26:01.044Z,99685.05
2022-09-25T17:28:30.489Z,99684.30
2022-09-25T17:31:01.330Z,99684.23
2022-09-25T17:33:32.641Z,99678.25
2022-09-25T17:36:04.714Z,99676.48
2022-09-25T17:38:34.493Z,99669.25
2022-09-25T17:41:15.245Z,99671.01
2022-09-25T17:43:44.086Z,99665.25
2022-09-25T17:46:16.895Z,99662.45
2022-09-25T17:48:51.630Z,99664.05
2022-09-25T17:51:26.495Z,99666.55
2022-09-25T17:53:57.278Z,99662.61
2022-09-25T17:56:30.933Z,99666.00
2022-09-25T17:59:00.886Z,99664.63
2022-09-25T18:01:36.740Z,99663.03
2022-09-25T18:04:23.872Z,99661.90
2022-09-25T18:06:53.165Z,99661.01
2022-09-25T18:09:22.195Z,99661.89
2022-09-25T18:11:52.149Z,99663.78
2022-09-25T18:14:21.143Z,99661.38
2022-09-25T18:16:49.939Z,99658.70
2022-09-25T18:19:39.468Z,99660.20
2022-09-25T18:22:20.641Z,99661.14
2022-09-25T18:24:57.311Z,99664.29
2022-09-25T18:27:33.575Z,99662.81
2022-09-25T18:30:02.563Z,99663.10
2022-09-25T18:32:33.768Z,99658.10
2022-09-25T18:35:03.501Z,99657.02
2022-09-25T18:37:32.163Z,99651.84
2022-09-25T18:40:01.140Z,99650.58
2022-09-25T18:42:30.343Z,99649.59
2022-09-25T18:44:58.942Z,99649.33
2022-09-25T18:47:27.941Z,99651.80
2022-09-25T18:49:56.481Z,99648.16
2022-09-25T18:52:25.255Z,99650.83
2022-09-25T18:54:53.934Z,99650.61
2022-09-25T18:57:22.639Z,99652.23
2022-09-25T18:59:51.054Z,99649.45
2022-09-25T19:02:23.299Z,99651.54
2022-09-25T19:04:55.417Z,99649.67
2022-09-25T19:07:26.957Z,99653.20
2022-09-25T19:09:58.656Z,99648.95
2022-09-25T19:12:28.158Z,99653.55
2022-09-25T19:14:57.307Z,99648.09
2022-09-25T19:17:26.966Z,99648.83
2022-09-25T19:19:55.561Z,99652.72
2022-09-25T19:22:25.203Z,99653.85
2022-09-25T19:24:54.980Z,99654.21
2022-09-25T19:27:26.211Z,99653.56
2022-09-25T19:29:55.498Z,99651.27
2022-09-25T19:32:25.453Z,99652.56
2022-09-25T19:34:55.179Z,99647.40
2022-09-25T19:37:28.391Z,99644.17
2022-09-25T19:40:17.624Z,99645.52
2022-09-25T19:42:48.239Z,99641.95
2022-09-25T19:45:18.940Z,99644.87
2022-09-25T19:47:47.965Z,99647.29
2022-09-25T19:50:19.030Z,99649.38
2022-09-25T19:52:51.098Z,99648.95
2022-09-25T19:55:20.038Z,99645.29
2022-09-25T19:57:49.174Z,99642.84
2022-09-25T20:00:18.598Z,99644.53
2022-09-25T20:02:48.215Z,99644.48
2022-09-25T20:05:18.515Z,99644.11
2022-09-25T20:07:47.954Z,99646.62
2022-09-25T20:10:17.385Z,99643.52
2022-09-25T20:12:46.549Z,99640.94
2022-09-25T20:15:15.271Z,99645.61
2022-09-25T20:17:45.148Z,99642.03
2022-09-25T20:20:15.823Z,99640.44
2022-09-25T20:22:45.340Z,99642.40
2022-09-25T20:25:14.011Z,99639.32
2022-09-25T20:27:43.536Z,99637.35
2022-09-25T20:30:13.855Z,99640.31
2022-09-25T20:32:43.106Z,99643.67
2022-09-25T20:35:12.838Z,99639.17
2022-09-25T20:37:47.076Z,99634.83
2022-09-25T20:40:16.453Z,99634.27
2022-09-25T20:42:45.865Z,99631.63
2022-09-25T20:45:15.105Z,99629.22
2022-09-25T20:47:46.462Z,99630.31
2022-09-25T20:50:16.540Z,99625.10
2022-09-25T20:52:45.866Z,99623.07
2022-09-25T20:55:15.067Z,99620.65
2022-09-25T20:57:44.567Z,99616.86
2022-09-25T21:00:18.381Z,99613.56
2022-09-25T21:02:49.158Z,99612.11
2022-09-25T21:05:18.400Z,99613.45
2022-09-25T21:07:47.742Z,99610.27
2022-09-25T21:10:16.872Z,99607.16
2022-09-25T21:12:46.164Z,99605.80
2022-09-25T21:15:15.745Z,99605.05
2022-09-25T21:17:45.190Z,99601.40
2022-09-25T21:20:14.645Z,99603.48
2022-09-25T21:22:44.026Z,99603.02
2022-09-25T21:25:13.313Z,99598.45
2022-09-25T21:27:42.541Z,99596.71
2022-09-25T21:30:12.260Z,99598.27
2022-09-25T21:32:42.086Z,99596.56
2022-09-25T21:35:11.843Z,99595.77
2022-09-25T21:37:41.086Z,99596.90
2022-09-25T21:40:10.351Z,99593.44
2022-09-25T21:42:39.761Z,99594.20
2022-09-25T21:45:09.939Z,99591.38
2022-09-25T21:47:39.188Z,99591.58
2022-09-25T21:50:08.833Z,99586.27
2022-09-25T21:52:40.443Z,99587.48
2022-09-25T21:55:10.810Z,99585.67
2022-09-25T21:57:39.996Z,99583.64
2022-09-25T22:00:10.831Z,99578.84
2022-09-25T22:02:41.064Z,99573.74
2022-09-25T22:05:12.574Z,99571.09
2022-09-25T22:07:43.078Z,99571.95
2022-09-25T22:10:12.522Z,99566.95
2022-09-25T22:12:42.167Z,99565.86
2022-09-25T22:15:13.427Z,99559.73
2022-09-25T22:17:42.542Z,99554.02
2022-09-25T22:20:12.597Z,99553.56
2022-09-25T22:22:41.857Z,99550.68
2022-09-25T22:25:11.161Z,99550.00
2022-09-25T22:27:40.418Z,99549.00
2022-09-25T22:30:10.651Z,99545.42
2022-09-25T22:32:39.452Z,99543.81
2022-09-25T22:35:09.181Z,99539.54
2022-09-25T22:37:38.444Z,99544.59
2022-09-25T22:40:08.474Z,99548.13
2022-09-25T22:42:37.747Z,99551.29
2022-09-25T22:45:07.568Z,99541.68
2022-09-25T22:47:36.848Z,99538.21
2022-09-25T22:50:06.762Z,99540.07
2022-09-25T22:52:36.694Z,99542.17
2022-09-25T22:55:06.056Z,99534.98
2022-09-25T22:57:39.487Z,99532.15
2022-09-25T23:00:10.637Z,99529.48
